createdAt,value
2018-12-11T00:00:23.570Z,96.51
2018-12-11T00:02:58.047Z,96.35
2018-12-11T00:05:32.306Z,95.95
2018-12-11T00:08:04.181Z,95.45
2018-12-11T00:10:39.301Z,95.94
2018-12-11T00:13:14.523Z,95.46
2018-12-11T00:15:47.720Z,95.99
2018-12-11T00:18:21.874Z,97.15
2018-12-11T00:20:55.796Z,97.21
2018-12-11T00:23:29.918Z,96.33
2018-12-11T00:26:04.294Z,96.71
2018-12-11T00:39:18.130Z,96.69
2018-12-11T00:41:52.199Z,97.00
2018-12-11T00:47:12.447Z,96.38
2018-12-11T00:49:48.188Z,96.11
2018-12-11T00:52:24.796Z,96.58
2018-12-11T00:55:04.732Z,96.62
2018-12-11T00:57:41.068Z,94.78
2018-12-11T01:00:15.915Z,96.01
2018-12-11T01:02:52.379Z,95.01
2018-12-11T01:05:32.022Z,95.29
2018-12-11T01:08:06.420Z,95.26
2018-12-11T01:10:40.568Z,96.91
2018-12-11T01:13:15.408Z,95.18
2018-12-11T01:15:52.261Z,94.82
2018-12-11T01:18:25.332Z,95.45
2018-12-11T01:21:00.707Z,96.25
2018-12-11T01:23:36.512Z,96.80
2018-12-11T01:26:08.350Z,97.04
2018-12-11T01:28:43.680Z,96.49
2018-12-11T01:42:33.018Z,95.81
2018-12-11T01:45:08.837Z,95.85
2018-12-11T01:47:44.387Z,96.52
2018-12-11T01:50:19.133Z,95.62
2018-12-11T01:55:39.578Z,96.39
2018-12-11T01:58:14.463Z,96.36
2018-12-11T02:00:46.733Z,96.18
2018-12-11T02:03:21.812Z,96.06
2018-12-11T02:05:58.823Z,96.07
2018-12-11T02:08:34.786Z,96.55
2018-12-11T02:14:00.339Z,95.54
2018-12-11T02:19:21.259Z,95.97
2018-12-11T02:54:37.793Z,96.21
2018-12-11T02:57:13.040Z,96.53
2018-12-11T02:59:44.893Z,96.63
2018-12-11T03:02:18.837Z,96.60
2018-12-11T03:04:52.813Z,96.59
2018-12-11T03:07:24.737Z,96.35
2018-12-11T03:09:58.590Z,95.08
2018-12-11T03:12:36.643Z,95.16
2018-12-11T03:15:18.704Z,94.82
2018-12-11T03:20:52.858Z,96.18
2018-12-11T03:26:11.684Z,96.14
2018-12-11T03:28:46.756Z,96.75
2018-12-11T03:31:18.982Z,96.54
2018-12-11T03:36:44.609Z,96.35
2018-12-11T03:39:16.250Z,95.91
2018-12-11T03:41:50.806Z,94.85
2018-12-11T03:44:25.948Z,94.97
2018-12-11T03:47:01.693Z,94.29
2018-12-11T03:49:37.129Z,95.19
2018-12-11T03:52:13.514Z,95.40
2018-12-11T03:54:48.460Z,96.20
2018-12-11T03:57:27.520Z,95.61
2018-12-11T04:00:06.595Z,96.60
2018-12-11T04:02:44.217Z,97.17
2018-12-11T04:05:19.618Z,96.86
2018-12-11T04:07:54.810Z,97.12
2018-12-11T04:10:30.109Z,97.19
2018-12-11T04:13:05.893Z,97.94
2018-12-11T04:15:43.761Z,96.03
2018-12-11T04:18:23.292Z,94.48
2018-12-11T04:20:57.361Z,96.30
2018-12-11T04:23:31.427Z,95.52
2018-12-11T04:26:06.973Z,96.51
2018-12-11T04:28:41.392Z,95.55
2018-12-11T04:31:15.270Z,96.99
2018-12-11T04:33:51.072Z,97.66
2018-12-11T04:36:27.291Z,98.09
2018-12-11T04:39:07.246Z,97.16
2018-12-11T04:41:57.278Z,96.90
2018-12-11T04:44:44.927Z,96.85
2018-12-11T04:56:03.361Z,93.15
2018-12-11T04:58:37.620Z,94.31
2018-12-11T05:01:11.974Z,92.08
2018-12-11T05:03:40.477Z,92.78
2018-12-11T05:06:10.966Z,92.98
2018-12-11T05:11:36.859Z,92.14
2018-12-11T05:14:05.959Z,93.34
2018-12-11T05:16:36.401Z,94.63
2018-12-11T05:19:04.835Z,94.33
2018-12-11T05:21:33.215Z,94.97
2018-12-11T05:24:02.579Z,95.37
2018-12-11T05:26:32.023Z,94.93
2018-12-11T05:29:04.188Z,95.02
2018-12-11T05:31:36.291Z,95.15
2018-12-11T05:34:04.748Z,95.41
2018-12-11T05:36:34.551Z,95.89
2018-12-11T05:39:03.357Z,95.86
2018-12-11T05:41:31.737Z,95.33
2018-12-11T05:44:00.095Z,95.91
2018-12-11T05:46:28.416Z,96.40
2018-12-11T05:48:56.827Z,96.25
2018-12-11T05:51:31.548Z,94.18
2018-12-11T05:54:05.424Z,93.36
2018-12-11T05:56:35.777Z,94.91
2018-12-11T05:59:04.598Z,94.38
2018-12-11T06:01:33.026Z,95.21
2018-12-11T06:04:01.395Z,95.95
2018-12-11T06:06:29.936Z,95.99
2018-12-11T06:09:07.358Z,95.59
2018-12-11T06:11:40.507Z,95.39
2018-12-11T06:14:19.165Z,95.68
2018-12-11T06:16:47.610Z,96.58
2018-12-11T06:19:17.227Z,96.27
2018-12-11T06:21:45.568Z,96.43
2018-12-11T06:24:13.891Z,96.69
2018-12-11T06:26:42.242Z,97.08
2018-12-11T06:29:10.560Z,96.81
2018-12-11T06:31:40.359Z,97.24
2018-12-11T06:34:16.209Z,97.18
2018-12-11T06:39:47.427Z,97.02
2018-12-11T06:42:24.376Z,95.59
2018-12-11T06:44:53.414Z,96.85
2018-12-11T06:47:22.429Z,96.63
2018-12-11T06:49:50.944Z,96.82
2018-12-11T06:52:26.425Z,95.68
2018-12-11T06:54:54.881Z,95.64
2018-12-11T06:57:23.788Z,95.98
2018-12-11T06:59:52.582Z,96.21
2018-12-11T07:02:21.797Z,96.44
2018-12-11T07:04:50.308Z,96.46
2018-12-11T07:07:19.552Z,96.74
2018-12-11T07:09:47.986Z,96.54
2018-12-11T07:12:16.411Z,96.89
2018-12-11T07:14:48.803Z,96.63
2018-12-11T07:17:17.801Z,96.80
2018-12-11T07:19:46.176Z,96.33
2018-12-11T07:22:14.580Z,95.89
2018-12-11T07:24:49.016Z,95.70
2018-12-11T07:27:18.827Z,94.63
2018-12-11T07:29:49.029Z,95.36
2018-12-11T07:32:31.620Z,95.73
2018-12-11T07:35:04.477Z,95.67
2018-12-11T07:37:35.142Z,96.03
2018-12-11T07:40:04.796Z,96.23
2018-12-11T07:42:35.027Z,96.91
2018-12-11T07:45:07.044Z,96.81
2018-12-11T07:47:41.260Z,96.70
2018-12-11T07:50:10.168Z,96.94
2018-12-11T07:52:39.630Z,97.13
2018-12-11T07:55:15.226Z,96.52
2018-12-11T07:57:49.765Z,96.38
2018-12-11T08:00:18.552Z,96.95
2018-12-11T08:02:48.980Z,96.97
2018-12-11T08:05:20.440Z,97.08
2018-12-11T08:07:56.482Z,97.12
2018-12-11T08:13:24.147Z,96.52
2018-12-11T08:15:55.538Z,96.76
2018-12-11T08:18:32.780Z,96.32
2018-12-11T08:21:03.023Z,96.10
2018-12-11T08:23:45.941Z,96.58
2018-12-11T08:26:26.410Z,96.29
2018-12-11T08:28:56.487Z,96.29
2018-12-11T08:34:37.880Z,96.54
2018-12-11T08:37:13.101Z,96.09
2018-12-11T08:39:57.931Z,96.19
2018-12-11T08:42:39.216Z,96.12
2018-12-11T08:47:09.937Z,95.45
2018-12-11T08:49:40.342Z,96.62
2018-12-11T08:52:10.728Z,95.58
2018-12-11T08:54:49.903Z,95.61
2018-12-11T08:57:22.203Z,95.63
2018-12-11T08:59:51.566Z,94.61
2018-12-11T09:02:20.241Z,93.94
2018-12-11T09:04:51.283Z,92.33
2018-12-11T09:07:22.203Z,91.74
2018-12-11T09:09:52.267Z,92.17
2018-12-11T09:12:25.361Z,92.14
2018-12-11T09:15:01.766Z,91.47
2018-12-11T09:17:30.697Z,92.77
2018-12-11T09:20:01.367Z,93.92
2018-12-11T09:33:21.207Z,88.39
2018-12-11T09:35:59.496Z,88.48
2018-12-11T09:38:35.683Z,88.04
2018-12-11T09:41:11.269Z,86.73
2018-12-11T09:43:45.654Z,87.96
2018-12-11T09:51:58.468Z,85.44
2018-12-11T10:00:27.806Z,91.42
2018-12-11T10:03:08.293Z,88.03
2018-12-11T10:05:56.670Z,86.87
2018-12-11T10:14:28.429Z,86.32
2018-12-11T10:31:32.509Z,85.28
2018-12-11T10:34:09.518Z,83.89
2018-12-11T10:39:42.618Z,82.59
2018-12-11T10:45:23.262Z,82.86
2018-12-11T12:18:47.254Z,83.59
2018-12-11T12:24:14.668Z,82.56
2018-12-11T12:35:35.289Z,81.81
2018-12-11T12:38:16.292Z,81.40
2018-12-11T12:52:50.062Z,82.16
2018-12-11T13:43:33.204Z,83.57
2018-12-11T15:05:12.764Z,88.52
2018-12-11T15:07:57.564Z,87.85
2018-12-11T15:24:47.257Z,88.56
2018-12-11T15:38:47.033Z,90.26
2018-12-11T15:41:34.467Z,89.21
2018-12-11T16:09:41.464Z,90.84
2018-12-11T16:12:32.062Z,88.74
2018-12-11T16:15:11.708Z,89.87
2018-12-11T16:33:21.581Z,91.44
2018-12-11T17:39:21.793Z,90.78
2018-12-11T17:42:39.955Z,90.60
2018-12-11T17:45:30.124Z,90.43
2018-12-11T17:51:01.912Z,90.62
2018-12-11T17:56:31.084Z,90.60
2018-12-11T18:11:03.209Z,91.56
2018-12-11T18:28:06.781Z,90.81
2018-12-11T20:55:42.677Z,93.99
2018-12-11T21:18:15.297Z,94.12
2018-12-11T21:20:52.754Z,93.17
2018-12-11T21:23:31.325Z,93.86
2018-12-11T21:26:07.833Z,93.85
2018-12-11T21:28:42.221Z,94.13
2018-12-11T21:31:16.608Z,93.92
2018-12-11T21:33:48.575Z,94.15
2018-12-11T21:36:23.656Z,93.39
2018-12-11T21:38:57.623Z,94.09
2018-12-11T21:41:33.227Z,94.21
2018-12-11T21:44:08.282Z,93.76
2018-12-11T21:46:44.640Z,93.71
2018-12-11T21:49:19.243Z,93.34
2018-12-11T21:51:53.907Z,93.68
2018-12-11T21:54:28.659Z,93.39
2018-12-11T21:57:02.024Z,93.10
2018-12-11T21:59:34.471Z,93.33
2018-12-11T22:02:10.627Z,92.97
2018-12-11T22:04:46.708Z,93.14
2018-12-11T22:07:23.189Z,93.15
2018-12-11T22:09:57.775Z,93.19
2018-12-11T22:12:33.695Z,93.58
2018-12-11T22:15:08.465Z,93.20
2018-12-11T22:17:44.449Z,93.32
2018-12-11T22:20:18.780Z,92.73
2018-12-11T22:22:53.021Z,93.52
2018-12-11T22:25:27.581Z,93.52
2018-12-11T22:28:01.870Z,93.67
2018-12-11T22:30:38.097Z,93.61
2018-12-11T22:33:12.124Z,94.22
2018-12-11T22:35:46.452Z,93.77
2018-12-11T22:38:21.265Z,93.41
2018-12-11T22:41:50.070Z,93.43
2018-12-11T22:44:25.238Z,93.35
2018-12-11T22:47:00.192Z,93.87
2018-12-11T22:49:37.798Z,94.12
2018-12-11T22:52:12.697Z,93.58
2018-12-11T22:54:46.825Z,93.24
2018-12-11T22:57:21.255Z,93.41
2018-12-11T22:59:56.053Z,93.98
2018-12-11T23:02:27.801Z,94.27
2018-12-11T23:04:58.335Z,94.02
2018-12-11T23:07:32.138Z,93.81
2018-12-11T23:10:07.270Z,93.82
2018-12-11T23:12:39.021Z,94.15
2018-12-11T23:15:09.412Z,94.80
2018-12-11T23:17:43.826Z,93.94
2018-12-11T23:20:21.963Z,94.19
2018-12-11T23:22:56.347Z,94.84
2018-12-11T23:28:29.288Z,94.08
2018-12-11T23:31:09.242Z,94.82
2018-12-11T23:33:43.838Z,93.94
2018-12-11T23:36:19.807Z,94.09
2018-12-11T23:38:58.627Z,94.52
2018-12-11T23:41:32.954Z,93.90
2018-12-11T23:44:09.384Z,94.11
2018-12-11T23:46:44.093Z,93.79
2018-12-11T23:49:21.379Z,93.33
2018-12-11T23:51:53.724Z,93.51
2018-12-11T23:54:28.943Z,93.72
2018-12-11T23:57:03.953Z,93.94
2018-12-11T23:59:43.174Z,93.73
